Time;durP1;ratioP1;P1;durP2;ratioP2;P2;SDS_P1;SDS_P2;PMS_P1;PMS_P2;Temp;Humidity;BMP_temperature;BMP_pressure;BME280_temperature;BME280_humidity;BME280_pressure;Samples;Min_cycle;Max_cycle;Signal;HPM_P1;HPM_P2
2020/12/30 00:00:27;;;;;;;0.70;0.60;;;4.10;99.90;;;5.04;100.00;28148.84;5056076;28;20846;-66
2020/12/30 00:02:54;;;;;;;0.70;0.70;;;4.10;99.90;;;5.07;100.00;26334.56;5062764;28;20496;-66
2020/12/30 00:05:23;;;;;;;0.60;0.60;;;4.10;99.90;;;5.08;100.00;24472.06;5057887;28;20476;-66
2020/12/30 00:07:50;;;;;;;0.70;0.60;;;4.10;99.90;;;5.10;100.00;22673.63;5061859;28;20448;-66
2020/12/30 00:10:21;;;;;;;0.70;0.60;;;4.10;99.90;;;5.10;100.00;20742.25;5069563;28;20798;-66
2020/12/30 00:12:49;;;;;;;0.60;0.50;;;4.10;99.90;;;5.14;100.00;19034.41;5060158;28;20970;-66
2020/12/30 00:15:16;;;;;;;0.60;0.50;;;4.10;99.90;;;5.10;100.00;17857.28;5059139;28;20455;-66
2020/12/30 00:17:44;;;;;;;0.70;0.50;;;4.10;99.90;;;5.15;100.00;16480.22;5068955;28;20497;-66
2020/12/30 00:20:14;;;;;;;0.60;0.60;;;4.10;99.90;;;5.18;100.00;15266.03;5057648;28;20494;-66
2020/12/30 00:22:43;;;;;;;0.60;0.50;;;4.10;99.90;;;5.20;100.00;13941.44;5071945;28;20451;-66
2020/12/30 00:25:11;;;;;;;0.63;0.60;;;4.10;99.90;;;5.09;100.00;11798.78;5061143;28;20531;-66
2020/12/30 00:27:40;;;;;;;0.63;0.60;;;4.10;99.90;;;5.08;100.00;11091.69;5068367;28;20467;-67
2020/12/30 00:30:09;;;;;;;0.60;0.50;;;4.20;99.90;;;5.05;100.00;10734.91;5068040;28;20440;-66
2020/12/30 00:32:36;;;;;;;0.60;0.50;;;4.20;99.90;;;5.13;100.00;10120.25;5053612;28;20518;-66
2020/12/30 00:35:05;;;;;;;0.70;0.60;;;4.20;99.90;;;5.11;100.00;9300.41;5064967;28;20867;-66
2020/12/30 00:37:32;;;;;;;0.70;0.70;;;4.20;99.90;;;5.18;100.00;8299.69;5055784;28;20479;-66
2020/12/30 00:40:00;;;;;;;0.60;0.50;;;4.20;99.90;;;5.12;100.00;7114.03;5051501;28;20440;-67
2020/12/30 00:42:31;;;;;;;0.60;0.50;;;4.20;99.90;;;5.14;100.00;6681.25;5060829;28;20531;-67
2020/12/30 00:45:00;;;;;;;0.60;0.50;;;4.20;99.90;;;5.19;100.00;6329.00;5064262;28;20432;-66
2020/12/30 00:47:27;;;;;;;0.63;0.60;;;4.20;99.90;;;5.13;100.00;5627.25;5058446;28;20458;-66
2020/12/30 00:49:55;;;;;;;0.60;0.57;;;4.20;99.90;;;5.17;100.00;5129.75;5058048;28;20482;-66
2020/12/30 00:52:22;;;;;;;0.70;0.60;;;4.20;99.90;;;5.16;100.00;4709.22;5066089;28;20451;-66
2020/12/30 00:54:52;;;;;;;0.60;0.50;;;4.20;99.90;;;5.14;100.00;4228.56;5066686;28;20440;-66
2020/12/30 00:57:37;;;;;;;0.63;0.60;;;4.30;99.90;;;5.20;100.00;4151.81;5056770;28;20784;-66
2020/12/30 01:00:05;;;;;;;0.60;0.50;;;4.30;99.90;;;5.15;100.00;3685.84;5060131;28;20446;-65
2020/12/30 01:02:52;;;;;;;0.60;0.50;;;4.30;99.90;;;5.12;100.00;3290.31;5072837;28;20553;-66
2020/12/30 01:05:18;;;;;;;0.60;0.57;;;4.30;99.90;;;5.16;100.00;3400.91;5075305;28;20474;-66
2020/12/30 01:07:45;;;;;;;0.60;0.50;;;4.30;99.90;;;5.12;100.00;3520.47;5058984;28;20521;-66
2020/12/30 01:10:12;;;;;;;0.60;0.50;;;4.30;99.90;;;5.15;100.00;3758.44;5071537;28;20447;-66
2020/12/30 01:12:40;;;;;;;0.60;0.50;;;4.30;99.90;;;5.09;100.00;4105.38;5047575;28;20431;-66
2020/12/30 01:15:07;;;;;;;0.60;0.50;;;4.20;99.90;;;5.04;100.00;4039.69;5074806;28;20462;-66
2020/12/30 01:17:34;;;;;;;0.60;0.50;;;4.20;99.90;;;5.09;100.00;4455.66;5063536;28;20439;-68
2020/12/30 01:20:01;;;;;;;0.70;0.60;;;4.20;99.90;;;5.11;100.00;4781.06;5063316;28;20467;-66
2020/12/30 01:22:28;;;;;;;0.63;0.60;;;4.30;99.90;;;5.16;100.00;5257.31;5067626;28;20451;-65
2020/12/30 01:24:55;;;;;;;0.60;0.60;;;4.30;99.90;;;5.13;100.00;5036.63;5057511;28;20444;-66
2020/12/30 01:27:22;;;;;;;0.60;0.50;;;4.30;99.90;;;5.13;100.00;4901.44;5061629;28;20860;-66
2020/12/30 01:29:50;;;;;;;0.60;0.50;;;4.30;99.90;;;5.17;100.00;5209.81;5057804;28;20448;-66
2020/12/30 01:32:17;;;;;;;0.70;0.60;;;4.30;99.90;;;5.13;100.00;4653.72;5073253;28;20450;-66
2020/12/30 01:34:44;;;;;;;0.60;0.50;;;4.30;99.90;;;5.15;100.00;4686.63;5076204;28;20465;-66
2020/12/30 01:37:11;;;;;;;0.60;0.60;;;4.30;99.90;;;5.13;100.00;4200.97;5074824;28;20508;-66
2020/12/30 01:39:38;;;;;;;0.60;0.60;;;4.30;99.90;;;5.28;100.00;4423.13;5071234;28;20566;-66
2020/12/30 01:42:05;;;;;;;0.60;0.60;;;4.40;99.90;;;5.21;100.00;3431.50;5073506;28;20458;-66
2020/12/30 01:44:33;;;;;;;0.60;0.60;;;4.40;99.90;;;5.04;100.00;2759.31;5066285;28;20443;-66
2020/12/30 01:47:04;;;;;;;0.60;0.50;;;4.40;99.90;;;5.11;100.00;2972.59;5058957;28;20494;-66
2020/12/30 01:49:31;;;;;;;0.60;0.60;;;4.40;99.90;;;5.08;100.00;2644.75;5071442;28;20467;-68
2020/12/30 01:51:59;;;;;;;0.70;0.60;;;4.40;99.90;;;5.16;100.00;3168.28;5057406;28;20457;-66
2020/12/30 01:54:28;;;;;;;0.60;0.60;;;4.40;99.90;;;5.20;100.00;2801.09;5068107;28;20443;-66
2020/12/30 01:56:55;;;;;;;0.60;0.50;;;4.40;99.90;;;5.13;100.00;1997.72;5054764;28;20444;-66
2020/12/30 01:59:23;;;;;;;0.60;0.60;;;4.40;99.90;;;5.09;100.00;1504.91;5066249;28;20447;-66
2020/12/30 02:01:57;;;;;;;0.70;0.60;;;4.40;99.90;;;5.08;100.00;1437.34;5072112;28;20447;-66
2020/12/30 02:04:34;;;;;;;0.60;0.60;;;4.40;99.90;;;5.12;100.00;1357.69;5068222;28;20459;-67
2020/12/30 02:07:01;;;;;;;0.60;0.60;;;4.40;99.90;;;5.21;100.00;961.03;5067621;28;20450;-68
2020/12/30 02:09:28;;;;;;;0.60;0.60;;;4.40;99.90;;;5.28;100.00;1006.56;5059525;28;20491;-66
2020/12/30 02:11:55;;;;;;;0.60;0.60;;;4.40;99.90;;;5.16;100.00;915.66;5072442;28;20937;-66
2020/12/30 02:14:22;;;;;;;0.70;0.60;;;4.40;99.90;;;5.24;100.00;1251.25;5066396;28;20428;-66
2020/12/30 02:16:52;;;;;;;0.60;0.60;;;4.40;99.90;;;5.36;100.00;1037.22;5064726;28;20446;-66
2020/12/30 02:19:20;;;;;;;0.60;0.50;;;4.50;99.90;;;5.20;100.00;-98.66;5059831;28;20470;-66
2020/12/30 02:21:52;;;;;;;0.60;0.60;;;4.40;99.90;;;5.12;100.00;-149.13;5068723;28;20458;-65
2020/12/30 02:24:26;;;;;;;0.60;0.60;;;4.40;99.90;;;5.06;100.00;87.84;5066181;28;20452;-66
2020/12/30 02:26:53;;;;;;;0.60;0.60;;;4.40;99.90;;;5.09;100.00;505.28;5056317;28;20424;-66
2020/12/30 02:29:21;;;;;;;0.70;0.60;;;4.40;99.90;;;5.06;100.00;540.06;5074158;28;20805;-66
2020/12/30 02:31:48;;;;;;;0.60;0.50;;;4.40;99.90;;;5.03;100.00;742.19;5058310;28;20446;-66
2020/12/30 02:34:15;;;;;;;0.70;0.60;;;4.40;99.90;;;5.03;100.00;712.25;5060474;28;20462;-65
2020/12/30 02:36:43;;;;;;;0.60;0.50;;;4.40;99.90;;;5.09;100.00;980.06;5064860;28;20523;-67
2020/12/30 02:39:10;;;;;;;0.60;0.60;;;4.40;99.90;;;5.09;100.00;467.78;5067281;28;20431;-66
2020/12/30 02:41:39;;;;;;;0.60;0.50;;;4.40;99.90;;;5.06;100.00;355.16;5057708;28;20455;-66
2020/12/30 02:44:07;;;;;;;0.70;0.60;;;4.40;99.90;;;5.07;100.00;615.06;5068223;28;20966;-66
2020/12/30 02:46:35;;;;;;;0.70;0.60;;;4.40;99.90;;;4.98;100.00;97.28;5061980;28;20438;-66
2020/12/30 02:49:02;;;;;;;0.60;0.60;;;4.40;99.90;;;5.03;100.00;434.88;5073640;28;20479;-67
2020/12/30 02:51:29;;;;;;;0.70;0.60;;;4.40;99.90;;;5.14;100.00;380.69;5063162;28;20839;-66
2020/12/30 02:53:55;;;;;;;0.60;0.60;;;4.40;99.90;;;5.19;100.00;-328.59;5061795;28;20442;-66
2020/12/30 02:56:23;;;;;;;0.60;0.60;;;4.40;99.90;;;5.09;100.00;-723.84;5053516;28;20443;-66
2020/12/30 02:58:51;;;;;;;0.60;0.60;;;4.50;99.90;;;5.16;100.00;-611.06;5064466;28;20434;-67
2020/12/30 03:01:18;;;;;;;0.60;0.60;;;4.50;99.90;;;5.07;100.00;-1158.50;5068659;28;20972;-67
2020/12/30 03:03:45;;;;;;;0.70;0.60;;;4.40;99.90;;;5.12;100.00;-1053.41;5069284;28;20463;-66
2020/12/30 03:06:12;;;;;;;0.70;0.60;;;4.40;99.90;;;5.23;100.00;-743.13;5067011;28;20435;-66
2020/12/30 03:08:39;;;;;;;0.60;0.57;;;4.40;99.90;;;5.18;100.00;-1729.97;5064885;28;20458;-66
2020/12/30 03:11:10;;;;;;;0.60;0.50;;;4.40;99.90;;;5.11;100.00;-1827.63;5054306;28;20444;-66
2020/12/30 03:13:39;;;;;;;0.80;0.73;;;4.40;99.90;;;5.06;100.00;-1780.34;5055997;28;20474;-66
2020/12/30 03:16:07;;;;;;;0.60;0.50;;;4.40;99.90;;;5.18;100.00;-1692.53;5068880;28;20420;-66
2020/12/30 03:18:34;;;;;;;0.90;0.90;;;4.40;99.90;;;5.10;100.00;-2262.09;5062553;28;20558;-66
2020/12/30 03:21:01;;;;;;;1.30;1.20;;;4.40;99.90;;;4.94;100.00;-2537.06;5061259;28;20448;-66
2020/12/30 03:23:28;;;;;;;0.70;0.60;;;4.40;99.90;;;5.01;100.00;-1665.69;5069591;28;20447;-66
2020/12/30 03:25:54;;;;;;;0.60;0.60;;;4.40;99.90;;;5.01;100.00;-1735.59;5053802;28;20931;-66
2020/12/30 03:28:21;;;;;;;0.60;0.50;;;4.40;99.90;;;5.03;100.00;-1643.13;5060174;28;20479;-66
2020/12/30 03:30:48;;;;;;;0.60;0.50;;;4.40;99.90;;;5.08;100.00;-1513.09;5063745;28;20443;-66
2020/12/30 03:33:16;;;;;;;0.60;0.57;;;4.40;99.90;;;5.11;100.00;-1470.53;5054667;28;20502;-66
2020/12/30 03:35:43;;;;;;;0.60;0.60;;;4.40;99.90;;;5.07;100.00;-1682.91;5070571;28;20837;-65
2020/12/30 03:38:10;;;;;;;0.60;0.50;;;4.40;99.90;;;5.14;100.00;-1228.16;5058646;28;20525;-66
2020/12/30 03:40:37;;;;;;;0.60;0.60;;;4.40;99.90;;;5.10;100.00;-1385.66;5072410;28;20435;-67
2020/12/30 03:43:04;;;;;;;0.60;0.50;;;4.40;99.90;;;5.04;100.00;-1460.81;5059019;28;20455;-66
2020/12/30 03:45:31;;;;;;;0.60;0.50;;;4.40;99.90;;;5.12;100.00;-1033.44;5068938;28;20851;-66
2020/12/30 03:47:58;;;;;;;0.60;0.60;;;4.40;99.90;;;5.08;100.00;-1170.94;5053924;28;20452;-66
2020/12/30 03:50:27;;;;;;;0.60;0.50;;;4.40;99.90;;;5.05;100.00;-1273.50;5059323;28;20435;-67
2020/12/30 03:52:53;;;;;;;0.60;0.50;;;4.40;99.90;;;5.00;100.00;-1133.88;5061855;28;20436;-66
2020/12/30 03:55:20;;;;;;;0.60;0.60;;;4.30;99.90;;;4.98;100.00;-894.22;5055370;28;20482;-66
2020/12/30 03:57:47;;;;;;;0.60;0.60;;;4.30;99.90;;;5.02;100.00;-774.19;5069598;28;20434;-66
2020/12/30 04:00:14;;;;;;;0.60;0.60;;;4.30;99.90;;;4.84;100.00;-1244.44;5058831;28;20856;-65
2020/12/30 04:02:41;;;;;;;0.67;0.60;;;4.20;99.90;;;4.88;100.00;-637.53;5071761;28;20531;-66
2020/12/30 04:05:08;;;;;;;0.67;0.60;;;4.20;99.90;;;5.04;100.00;-444.34;5059789;28;20555;-65
2020/12/30 04:07:36;;;;;;;0.60;0.60;;;4.20;99.90;;;4.86;100.00;-1029.66;5070215;28;20455;-67
2020/12/30 04:10:03;;;;;;;0.70;0.60;;;4.20;99.90;;;4.81;100.00;-605.44;5068320;28;20843;-65
2020/12/30 04:12:30;;;;;;;0.60;0.60;;;4.10;99.90;;;4.74;100.00;-401.09;5061220;28;20483;-66
2020/12/30 04:14:57;;;;;;;0.60;0.53;;;4.10;99.90;;;4.83;100.00;38.88;5061581;28;20443;-66
2020/12/30 04:17:24;;;;;;;0.70;0.70;;;4.10;99.90;;;4.76;100.00;-4.03;5072914;28;20837;-66
2020/12/30 04:19:51;;;;;;;0.60;0.50;;;4.00;99.90;;;4.67;100.00;-54.50;5060504;28;20492;-66
2020/12/30 04:22:18;;;;;;;0.60;0.50;;;4.00;99.90;;;4.57;100.00;57.19;5070966;28;20431;-66
2020/12/30 04:24:45;;;;;;;0.60;0.60;;;3.90;99.90;;;4.50;100.00;131.63;5059098;28;20454;-66
2020/12/30 04:27:12;;;;;;;0.70;0.60;;;3.80;99.90;;;4.44;100.00;211.13;5072632;28;20439;-69
2020/12/30 04:29:39;;;;;;;0.60;0.50;;;3.80;99.90;;;4.35;100.00;452.63;5058991;28;20551;-66
2020/12/30 04:32:06;;;;;;;0.60;0.50;;;3.80;99.90;;;4.32;100.00;464.88;5075040;28;20462;-66
2020/12/30 04:34:33;;;;;;;0.70;0.60;;;3.80;99.90;;;4.13;100.00;-155.16;5072303;28;20452;-66
2020/12/30 04:37:00;;;;;;;0.60;0.60;;;3.70;99.90;;;4.00;100.00;-38.72;5068511;28;20484;-66
2020/12/30 04:39:29;;;;;;;0.63;0.60;;;3.60;99.90;;;3.82;100.00;-493.53;5060634;28;20247;-67
2020/12/30 04:42:00;;;;;;;0.60;0.60;;;3.40;99.90;;;3.62;100.00;-726.41;5058048;28;20519;-66
2020/12/30 04:44:33;;;;;;;0.60;0.52;;;3.30;99.90;;;3.53;100.00;-1045.75;5057737;28;20460;-66
2020/12/30 04:47:02;;;;;;;0.60;0.50;;;3.20;99.90;;;3.57;100.00;-891.06;5075608;28;20702;-66
2020/12/30 04:49:30;;;;;;;0.70;0.60;;;3.20;99.90;;;3.45;100.00;-1833.16;5060492;28;20218;-67
2020/12/30 04:51:58;;;;;;;0.70;0.60;;;3.10;99.90;;;3.41;100.00;-2388.53;5060568;28;20189;-66
2020/12/30 04:54:25;;;;;;;0.60;0.60;;;3.10;99.90;;;3.36;100.00;-2966.16;5069708;28;20182;-67
2020/12/30 04:57:01;;;;;;;0.60;0.60;;;3.10;99.90;;;3.42;100.00;-3640.63;5060343;28;20178;-66
2020/12/30 04:59:32;;;;;;;0.60;0.50;;;3.00;99.90;;;3.43;100.00;-4332.44;5075998;28;20206;-65
2020/12/30 05:02:07;;;;;;;0.60;0.60;;;3.10;99.90;;;3.33;100.00;-5722.81;5038366;28;20709;-66
2020/12/30 05:04:36;;;;;;;0.60;0.50;;;3.00;99.90;;;3.27;100.00;-6724.56;5075817;28;20242;-66
2020/12/30 05:07:08;;;;;;;0.60;0.50;;;3.00;99.90;;;3.30;100.00;-7378.50;5074637;28;20609;-66
2020/12/30 05:09:38;;;;;;;0.60;0.50;;;3.00;99.90;;;3.26;100.00;-8474.09;5059422;28;20209;-66
2020/12/30 05:12:12;;;;;;;0.60;0.50;;;2.90;99.90;;;3.21;100.00;-9449.91;5072049;28;20203;-66
2020/12/30 05:14:40;;;;;;;0.60;0.50;;;2.90;99.90;;;3.19;100.00;-10380.81;5062099;28;20189;-66
2020/12/30 05:17:08;;;;;;;0.70;0.60;;;2.80;99.90;;;3.24;100.00;-10982.19;5061951;28;20213;-66
2020/12/30 05:19:36;;;;;;;0.60;0.60;;;2.80;99.90;;;3.31;100.00;-11720.38;5071760;28;20213;-66
2020/12/30 05:22:04;;;;;;;0.80;0.80;;;2.90;99.90;;;3.48;100.00;-12300.91;5060151;28;20189;-66
2020/12/30 05:24:31;;;;;;;0.60;0.57;;;3.00;99.90;;;3.56;100.00;-12967.31;5067663;28;20193;-66
2020/12/30 05:26:59;;;;;;;0.60;0.50;;;3.10;99.90;;;3.62;100.00;-13534.19;5054894;28;20220;-66
2020/12/30 05:29:27;;;;;;;0.60;0.50;;;3.10;99.90;;;3.66;100.00;-13966.63;5070633;28;20200;-65
2020/12/30 05:31:55;;;;;;;0.70;0.60;;;3.20;99.90;;;3.72;100.00;-14339.94;5057281;28;20669;-66
2020/12/30 05:34:23;;;;;;;0.60;0.50;;;3.20;99.90;;;3.76;100.00;-14807.28;5060625;28;20292;-65
2020/12/30 05:36:51;;;;;;;0.60;0.60;;;3.20;99.90;;;3.81;100.00;-15200.22;5066219;28;20193;-66
2020/12/30 05:39:28;;;;;;;0.60;0.50;;;3.20;99.90;;;3.82;100.00;-15520.59;5062264;28;20436;-66
2020/12/30 05:42:09;;;;;;;0.60;0.50;;;3.20;99.90;;;3.86;100.00;-15776.97;5071756;28;20222;-66
2020/12/30 05:44:37;;;;;;;0.60;0.50;;;3.30;99.90;;;3.77;100.00;-16261.44;5065267;28;20536;-66
2020/12/30 05:47:15;;;;;;;0.60;0.50;;;3.20;99.90;;;3.82;100.00;-16438.59;5067529;28;20594;-65
2020/12/30 05:49:44;;;;;;;0.65;0.60;;;3.30;99.90;;;3.81;100.00;-16688.81;5073496;28;20258;-66
2020/12/30 05:52:23;;;;;;;0.60;0.60;;;3.30;99.90;;;3.85;100.00;-16912.91;5057170;28;20296;-66
2020/12/30 05:54:53;;;;;;;0.60;0.50;;;3.30;99.90;;;3.79;100.00;-17221.72;5071707;28;20652;-66
2020/12/30 05:57:29;;;;;;;0.60;0.55;;;3.30;99.90;;;3.66;100.00;-17578.34;5072333;28;20351;-66
2020/12/30 05:59:59;;;;;;;0.60;0.50;;;3.20;99.90;;;3.50;100.00;-17852.31;5056919;28;20254;-66
2020/12/30 06:02:28;;;;;;;0.60;0.50;;;3.10;99.90;;;3.41;100.00;-18053.41;5056676;28;20213;-66
2020/12/30 06:05:08;;;;;;;0.60;0.60;;;3.00;99.90;;;3.40;100.00;-18174.72;5066455;28;20204;-65
2020/12/30 06:07:40;;;;;;;0.60;0.50;;;3.00;99.90;;;3.35;100.00;-18518.00;5058611;28;20173;-65
2020/12/30 06:10:09;;;;;;;0.60;0.50;;;3.00;99.90;;;3.35;100.00;-18560.00;5070716;28;20193;-67
2020/12/30 06:12:52;;;;;;;0.60;0.50;;;3.00;99.90;;;3.21;100.00;-18876.19;5056233;28;20616;-66
2020/12/30 06:15:22;;;;;;;0.60;0.50;;;2.90;99.90;;;3.21;100.00;-18856.25;5069570;28;20187;-65
2020/12/30 06:17:57;;;;;;;0.60;0.50;;;2.90;99.90;;;3.19;100.00;-19029.09;5057469;28;20212;-66
2020/12/30 06:20:31;;;;;;;0.60;0.60;;;2.80;99.90;;;3.10;100.00;-19138.38;5067717;28;20265;-65
2020/12/30 06:23:04;;;;;;;0.60;0.50;;;2.70;99.90;;;3.05;100.00;-19312.84;5067199;28;20652;-66
2020/12/30 06:25:33;;;;;;;0.63;0.60;;;2.70;99.90;;;3.06;100.00;-19392.47;5058424;28;20197;-66
2020/12/30 06:28:08;;;;;;;0.60;0.50;;;2.70;99.90;;;3.12;100.00;-19485.47;5059044;28;20223;-66
2020/12/30 06:30:37;;;;;;;0.60;0.50;;;2.70;99.90;;;3.07;100.00;-19595.56;5066377;28;20189;-66
2020/12/30 06:33:05;;;;;;;0.60;0.60;;;2.70;99.90;;;3.06;100.00;-19729.09;5055494;28;20189;-66
2020/12/30 06:35:35;;;;;;;0.60;0.52;;;2.70;99.90;;;3.06;100.00;-19840.47;5070259;28;20189;-66
2020/12/30 06:38:19;;;;;;;0.60;0.60;;;2.60;99.90;;;3.08;100.00;-19981.94;5058171;28;20177;-66
2020/12/30 06:40:54;;;;;;;0.60;0.50;;;2.80;99.90;;;3.07;100.00;-20078.31;5073017;28;20205;-66
2020/12/30 06:43:41;;;;;;;0.60;0.50;;;2.70;99.90;;;2.93;100.00;-20294.66;5072666;28;20246;-66
2020/12/30 06:46:11;;;;;;;0.60;0.50;;;2.60;99.90;;;3.03;100.00;-20247.88;5059188;28;20219;-65
2020/12/30 06:48:57;;;;;;;0.68;0.60;;;2.60;99.90;;;3.10;100.00;-20361.13;5065967;28;20226;-66
2020/12/30 06:51:35;;;;;;;1.77;1.67;;;2.70;99.90;;;3.21;100.00;-20346.81;5070103;28;20204;-66
2020/12/30 06:54:02;;;;;;;1.50;1.40;;;2.70;99.90;;;3.24;100.00;-20360.00;5054777;28;20609;-66
2020/12/30 06:56:37;;;;;;;0.60;0.50;;;2.80;99.90;;;3.32;100.00;-20468.50;5063663;28;20215;-67
2020/12/30 06:59:05;;;;;;;0.60;0.60;;;2.90;99.90;;;3.38;100.00;-20420.75;5064613;28;20180;-65
2020/12/30 07:01:58;;;;;;;0.60;0.60;;;2.90;99.90;;;3.44;100.00;-20476.59;5055831;28;20222;-66
2020/12/30 07:04:27;;;;;;;0.60;0.50;;;3.00;99.90;;;3.42;100.00;-20485.94;5073283;28;20254;-66
2020/12/30 07:06:55;;;;;;;0.60;0.50;;;3.00;99.90;;;3.44;100.00;-20466.69;5062550;28;20212;-66
2020/12/30 07:09:33;;;;;;;0.60;0.50;;;3.00;99.90;;;3.35;100.00;-20548.66;5056829;28;20221;-66
2020/12/30 07:12:00;;;;;;;0.60;0.50;;;2.90;99.90;;;3.40;100.00;-20485.53;5068524;28;20178;-67
2020/12/30 07:14:28;;;;;;;0.60;0.50;;;3.00;99.90;;;3.52;100.00;-20449.06;5061718;28;20177;-66
2020/12/30 07:16:58;;;;;;;0.60;0.50;;;3.00;99.90;;;3.66;100.00;-20442.97;5062093;28;20545;-66
2020/12/30 07:19:27;;;;;;;0.60;0.50;;;3.20;99.90;;;3.78;100.00;-20362.03;5069891;28;20223;-66
2020/12/30 07:22:04;;;;;;;0.60;0.60;;;3.20;99.90;;;3.74;100.00;-20395.50;5056852;28;20201;-67
2020/12/30 07:24:35;;;;;;;0.60;0.60;;;3.30;99.90;;;3.85;100.00;-20292.06;5065658;28;20649;-66
2020/12/30 07:27:04;;;;;;;0.60;0.50;;;3.30;99.90;;;3.91;100.00;-20325.66;5053700;28;20185;-66
2020/12/30 07:29:33;;;;;;;0.60;0.50;;;3.40;99.90;;;3.86;100.00;-20312.16;5053581;28;20220;-67
2020/12/30 07:32:03;;;;;;;0.60;0.60;;;3.40;99.90;;;3.97;100.00;-20168.66;5053747;28;20217;-66
2020/12/30 07:34:32;;;;;;;0.80;0.80;;;3.40;99.90;;;4.02;100.00;-20130.34;5061702;28;20436;-66
2020/12/30 07:37:02;;;;;;;0.60;0.50;;;3.40;99.90;;;4.06;100.00;-20086.94;5061653;28;20590;-66
2020/12/30 07:39:49;;;;;;;0.60;0.50;;;3.40;99.90;;;4.07;100.00;-20017.78;5066071;28;20564;-66
2020/12/30 07:42:19;;;;;;;0.60;0.60;;;3.40;99.90;;;4.06;100.00;-20027.31;5068920;28;20196;-66
2020/12/30 07:44:48;;;;;;;0.60;0.50;;;3.40;99.90;;;4.11;100.00;-19924.50;5066386;28;20632;-66
2020/12/30 07:47:17;;;;;;;0.60;0.50;;;3.40;99.90;;;4.05;100.00;-19947.84;5057962;28;20440;-67
2020/12/30 07:49:44;;;;;;;0.60;0.50;;;3.40;99.90;;;4.17;100.00;-19816.88;5060110;28;20233;-67
2020/12/30 07:52:11;;;;;;;0.60;0.50;;;3.50;99.90;;;4.16;100.00;-19787.00;5064745;28;20248;-67
2020/12/30 07:54:38;;;;;;;0.60;0.50;;;3.50;99.90;;;4.16;100.00;-19771.97;5062586;28;20665;-67
2020/12/30 07:57:07;;;;;;;0.60;0.60;;;3.50;99.90;;;4.33;100.00;-19521.09;5057432;28;20646;-67
2020/12/30 07:59:36;;;;;;;0.60;0.50;;;3.60;99.90;;;4.41;100.00;-19473.28;5061042;28;20190;-66
2020/12/30 08:02:04;;;;;;;0.60;0.53;;;3.60;99.90;;;4.25;100.00;-19774.34;5066675;28;20428;-66
2020/12/30 08:04:34;;;;;;;0.60;0.60;;;3.60;99.90;;;4.33;100.00;-19654.91;5068258;28;20462;-66
2020/12/30 08:07:03;;;;;;;0.70;0.70;;;3.70;99.90;;;4.38;100.00;-19609.06;5066433;28;20451;-66
2020/12/30 08:09:34;;;;;;;0.60;0.50;;;3.70;99.90;;;4.38;100.00;-19636.22;5056656;28;20209;-67
2020/12/30 08:12:03;;;;;;;0.60;0.50;;;3.80;99.90;;;4.60;100.00;-19460.91;5058043;28;20439;-67
2020/12/30 08:14:33;;;;;;;0.60;0.50;;;3.80;99.90;;;4.70;100.00;-19656.81;5062296;28;20438;-66
2020/12/30 08:17:04;;;;;;;1.00;1.00;;;3.90;99.90;;;4.82;100.00;-19684.88;5068075;28;20450;-65
2020/12/30 08:19:42;;;;;;;0.60;0.60;;;4.00;99.90;;;4.94;100.00;-19938.59;5057076;28;20495;-67
2020/12/30 08:22:13;;;;;;;0.60;0.60;;;4.10;99.90;;;4.92;100.00;-20352.59;5055590;28;20856;-65
2020/12/30 08:24:43;;;;;;;11.10;1.90;;;4.10;99.90;;;4.98;100.00;-20632.09;5062448;28;20507;-67
2020/12/30 08:27:13;;;;;;;0.70;0.60;;;4.20;99.90;;;5.02;100.00;-20818.88;5064549;28;20841;-66
2020/12/30 08:29:56;;;;;;;0.60;0.60;;;4.20;99.90;;;5.02;100.00;-20818.75;5062536;28;20509;-68
2020/12/30 08:32:41;;;;;;;0.60;0.50;;;4.20;99.90;;;4.92;100.00;-20816.09;5055012;28;20440;-67
2020/12/30 08:35:13;;;;;;;0.70;0.60;;;4.20;99.90;;;5.04;100.00;-20819.31;5060749;28;20471;-67
2020/12/30 08:37:43;;;;;;;0.70;0.60;;;4.30;99.90;;;5.12;100.00;-20821.41;5058589;28;20443;-66
2020/12/30 08:40:18;;;;;;;0.60;0.60;;;4.30;99.90;;;5.15;100.00;-20822.22;5057620;28;20444;-67
2020/12/30 08:43:20;;;;;;;0.60;0.50;;;4.40;99.90;;;5.32;100.00;-20827.09;5062005;28;20490;-67
2020/12/30 08:46:08;;;;;;;0.60;0.60;;;4.40;99.90;;;5.30;100.00;-20826.56;5064465;28;20521;-67
2020/12/30 08:48:51;;;;;;;0.67;0.60;;;4.40;99.90;;;5.19;100.00;-20823.50;5065593;28;20583;-68
2020/12/30 08:51:41;;;;;;;0.60;0.50;;;4.40;99.90;;;5.16;100.00;-20822.50;5057867;28;20497;-67
2020/12/30 08:54:19;;;;;;;0.60;0.60;;;4.30;99.90;;;4.96;100.00;-20817.09;5071572;28;20452;-67
2020/12/30 08:56:47;;;;;;;0.60;0.60;;;4.40;99.90;;;5.03;100.00;-20819.16;5068495;28;20449;-66
2020/12/30 08:59:22;;;;;;;0.60;0.60;;;4.30;99.90;;;4.94;100.00;-20816.53;5072049;28;20427;-70
2020/12/30 09:01:49;;;;;;;0.70;0.60;;;4.40;99.90;;;5.20;100.00;-20823.63;5053333;28;20538;-67
2020/12/30 09:04:16;;;;;;;0.70;0.70;;;4.40;99.90;;;5.54;100.00;-20832.94;5067470;28;20982;-68
2020/12/30 09:06:50;;;;;;;0.63;0.60;;;4.50;99.90;;;5.42;100.00;-20829.59;5062204;28;20462;-65
2020/12/30 09:09:19;;;;;;;0.70;0.60;;;4.70;99.90;;;5.88;100.00;-20842.28;5068938;28;20478;-66
2020/12/30 09:11:48;;;;;;;0.63;0.60;;;4.70;99.90;;;5.70;100.00;-20837.41;5067628;28;20824;-66
2020/12/30 09:14:18;;;;;;;0.60;0.57;;;4.70;99.90;;;5.62;100.00;-20835.03;5060683;28;20919;-65
2020/12/30 09:17:02;;;;;;;0.70;0.60;;;4.70;99.90;;;5.54;100.00;-20832.94;5065124;28;20451;-65
2020/12/30 09:19:30;;;;;;;0.70;0.60;;;4.70;99.90;;;5.31;100.00;-20826.69;5061013;28;20512;-66
2020/12/30 09:22:09;;;;;;;0.60;0.60;;;4.70;99.90;;;5.42;100.00;-20829.59;5061500;28;20440;-65
2020/12/30 09:24:37;;;;;;;0.70;0.60;;;4.60;99.90;;;5.41;100.00;-20829.31;5059683;28;21209;-67
2020/12/30 09:27:21;;;;;;;0.70;0.60;;;4.60;99.90;;;5.59;100.00;-20834.34;5062442;28;20942;-65
2020/12/30 09:30:13;;;;;;;0.70;0.67;;;4.70;99.90;;;5.53;100.00;-20832.66;5071504;28;20451;-65
2020/12/30 09:32:42;;;;;;;0.70;0.70;;;4.70;99.90;;;5.58;100.00;-20834.19;5048595;28;20480;-66
2020/12/30 09:35:11;;;;;;;0.70;0.60;;;4.70;99.90;;;5.58;100.00;-20834.06;5068695;28;20825;-66
2020/12/30 09:37:40;;;;;;;1.37;0.90;;;4.70;99.90;;;5.69;100.00;-20837.13;5058483;28;20432;-66
2020/12/30 09:40:10;;;;;;;0.60;0.60;;;4.80;99.90;;;5.72;100.00;-20837.97;5070202;28;20487;-65
2020/12/30 09:42:39;;;;;;;0.70;0.60;;;4.80;99.90;;;5.80;100.00;-20840.03;5064387;28;20469;-65
2020/12/30 09:45:08;;;;;;;0.60;0.50;;;4.90;99.90;;;6.02;100.00;-20846.16;5062351;28;20444;-65
2020/12/30 09:47:36;;;;;;;0.60;0.50;;;5.00;99.90;;;6.04;100.00;-20846.72;5055349;28;20475;-65
2020/12/30 09:50:04;;;;;;;0.70;0.60;;;5.10;99.90;;;6.11;100.00;-20848.38;5070980;28;21077;-68
2020/12/30 09:52:34;;;;;;;0.70;0.70;;;5.10;99.90;;;6.04;100.00;-20846.59;5063047;28;20465;-68
2020/12/30 09:55:04;;;;;;;0.67;0.60;;;5.10;99.90;;;6.02;100.00;-20846.03;5062798;28;20448;-65
2020/12/30 09:57:31;;;;;;;0.63;0.60;;;5.20;99.90;;;6.12;100.00;-20848.81;5070386;28;20447;-67
2020/12/30 09:59:59;;;;;;;0.70;0.60;;;5.20;99.90;;;6.26;100.00;-20852.72;5071186;28;20451;-66
2020/12/30 10:02:27;;;;;;;1.43;1.07;;;5.30;99.90;;;6.22;100.00;-20851.44;5056061;28;20450;-66
2020/12/30 10:04:53;;;;;;;0.70;0.60;;;5.30;99.90;;;6.20;100.00;-20851.03;5066022;28;20528;-66
2020/12/30 10:07:20;;;;;;;0.70;0.60;;;5.30;99.90;;;6.03;100.00;-20846.44;5060027;28;20442;-67
2020/12/30 10:09:48;;;;;;;0.70;0.60;;;5.20;99.90;;;6.40;100.00;-20856.31;5073000;28;20853;-66
2020/12/30 10:12:15;;;;;;;0.70;0.60;;;5.20;99.90;;;6.19;100.00;-20850.63;5069519;28;20506;-66
2020/12/30 10:14:42;;;;;;;0.70;0.60;;;5.20;99.90;;;5.99;100.00;-20845.19;5063964;28;20801;-66
2020/12/30 10:17:09;;;;;;;0.63;0.60;;;5.20;99.90;;;6.01;100.00;-20845.88;5064496;28;20499;-65
2020/12/30 10:19:36;;;;;;;0.70;0.60;;;5.20;99.90;;;6.21;100.00;-20851.19;5065980;28;20476;-66
2020/12/30 10:22:07;;;;;;;0.60;0.60;;;5.20;99.90;;;6.03;100.00;-20759.91;5062937;28;20431;-67
2020/12/30 10:24:35;;;;;;;0.70;0.60;;;5.20;99.90;;;6.28;100.00;-20316.47;5065218;28;20501;-65
2020/12/30 10:27:02;;;;;;;0.70;0.60;;;5.30;99.90;;;6.58;100.00;-20717.47;5063585;28;20475;-66
2020/12/30 10:29:31;;;;;;;0.70;0.60;;;5.30;99.90;;;6.49;100.00;-19976.09;5065979;28;20793;-66
2020/12/30 10:31:58;;;;;;;0.60;0.53;;;5.30;99.90;;;6.48;100.00;-19614.94;5063512;28;20435;-66
2020/12/30 10:34:25;;;;;;;0.70;0.50;;;5.40;99.90;;;6.32;100.00;-18533.25;5070958;28;20461;-66
2020/12/30 10:36:52;;;;;;;0.60;0.50;;;5.40;99.90;;;6.41;100.00;-18500.53;5064748;28;20448;-65